Ontinyent, Spain
Current Conditions -  °F | °C
As of 2:00 PM on Friday 24 Oct 2014 (Local Time) from LEAL Reporting Station
Clear Clear  
Wind Chill: 79°   Ceiling: Unl
Heat Index: 79°   Visibility: 6mi
Dew Point: 41°   Wind: 6mph
Humidity: 26%   Direction: 100°E
Pressure: 30.03"   Gusts: NA
Location:  38.82°N, 0.62°W
Report Text: LEAL 241200Z 10005KT 060V140 CAVOK 26/05 Q1017 NOSIG
Loading
Personal Weather Stations






























Interactive Weather Map
Tropical Storm Tracking
New forecast layout! Learn more

10-Day Weather Forecast

Advertisements
Track Severe Weather on mobile